Time;durP1;ratioP1;P1;durP2;ratioP2;P2;SDS_P1;SDS_P2;PMS_P1;PMS_P2;Temp;Humidity;BMP_temperature;BMP_pressure;BME280_temperature;BME280_humidity;BME280_pressure;Samples;Min_cycle;Max_cycle;Signal;HPM_P1;HPM_P2
2023/03/11 00:01:55;;;;;;;;;;;;;;;-0.50;100.00;100653.81;5055565;28;20362;-77
2023/03/11 00:04:20;;;;;;;;;;;;;;;-0.49;100.00;100655.53;5057620;28;20394;-77
2023/03/11 00:06:45;;;;;;;;;;;;;;;-0.62;100.00;100664.78;5057774;28;20214;-77
2023/03/11 00:09:11;;;;;;;;;;;;;;;-0.62;100.00;100663.00;5054540;28;19923;-77
2023/03/11 00:11:36;;;;;;;;;;;;;;;-0.69;100.00;100666.78;5061796;28;20001;-77
2023/03/11 00:14:01;;;;;;;;;;;;;;;-0.68;100.00;100665.88;5061918;28;20027;-77
2023/03/11 00:16:26;;;;;;;;;;;;;;;-0.68;100.00;100663.25;5053835;28;21320;-77
2023/03/11 00:18:52;;;;;;;;;;;;;;;-0.67;100.00;100666.72;5050218;28;19924;-77
2023/03/11 00:21:17;;;;;;;;;;;;;;;-0.70;100.00;100672.09;5052515;28;19931;-77
2023/03/11 00:23:43;;;;;;;;;;;;;;;-0.67;100.00;100677.25;5054353;28;19927;-76
2023/03/11 00:26:08;;;;;;;;;;;;;;;-0.65;100.00;100676.28;5052931;28;19920;-77
2023/03/11 00:28:33;;;;;;;;;;;;;;;-0.66;100.00;100679.84;5054798;28;19979;-77
2023/03/11 00:30:59;;;;;;;;;;;;;;;-0.61;100.00;100684.97;5052838;28;19924;-76
2023/03/11 00:33:24;;;;;;;;;;;;;;;-0.61;100.00;100687.63;5044348;28;19927;-77
2023/03/11 00:35:49;;;;;;;;;;;;;;;-0.67;100.00;100695.72;5039492;28;19924;-77
2023/03/11 00:38:15;;;;;;;;;;;;;;;-0.69;100.00;100698.44;5040521;28;19926;-76
2023/03/11 00:40:40;;;;;;;;;;;;;;;-0.75;100.00;100690.72;5050754;28;19956;-77
2023/03/11 00:43:06;;;;;;;;;;;;;;;-0.78;100.00;100698.72;5037647;28;20067;-77
2023/03/11 00:45:31;;;;;;;;;;;;;;;-0.95;100.00;100676.41;5049747;28;20461;-76
2023/03/11 00:47:56;;;;;;;;;;;;;;;-0.81;100.00;100698.81;5041942;28;20362;-77
2023/03/11 00:50:22;;;;;;;;;;;;;;;-0.88;100.00;100706.06;5051839;28;19916;-77
2023/03/11 00:52:48;;;;;;;;;;;;;;;-0.84;100.00;100701.53;5053417;28;19959;-77
2023/03/11 00:55:14;;;;;;;;;;;;;;;-0.90;100.00;100705.25;5036026;28;20016;-77
2023/03/11 00:57:39;;;;;;;;;;;;;;;-0.89;100.00;100708.75;5054844;28;20286;-77
2023/03/11 01:00:07;;;;;;;;;;;;;;;-0.90;100.00;100715.81;5052508;28;19920;-76
2023/03/11 01:02:34;;;;;;;;;;;;;;;-0.96;100.00;100708.06;5039040;28;20039;-76
2023/03/11 01:04:59;;;;;;;;;;;;;;;-1.01;100.00;100707.34;5053845;28;20375;-77
2023/03/11 01:07:24;;;;;;;;;;;;;;;-1.09;100.00;100710.25;5053394;28;20363;-78
2023/03/11 01:09:49;;;;;;;;;;;;;;;-1.10;100.00;100714.66;5051162;28;19920;-77
2023/03/11 01:12:14;;;;;;;;;;;;;;;-1.12;100.00;100721.75;5056872;28;19928;-76
2023/03/11 01:14:40;;;;;;;;;;;;;;;-1.13;100.00;100720.03;5054747;28;19932;-77
2023/03/11 01:17:05;;;;;;;;;;;;;;;-1.10;100.00;100734.88;5052816;28;19967;-77
2023/03/11 01:19:30;;;;;;;;;;;;;;;-1.15;100.00;100731.50;5039483;28;19968;-76
2023/03/11 01:21:55;;;;;;;;;;;;;;;-1.18;100.00;100732.47;5038026;28;19927;-77
2023/03/11 01:24:20;;;;;;;;;;;;;;;-1.33;100.00;100715.38;5052119;28;19966;-76
2023/03/11 01:26:46;;;;;;;;;;;;;;;-1.14;100.00;100742.00;5049696;28;19943;-77
2023/03/11 01:29:11;;;;;;;;;;;;;;;-1.14;100.00;100742.00;5054173;28;20365;-76
2023/03/11 01:31:36;;;;;;;;;;;;;;;-1.10;100.00;100745.41;5037691;28;20348;-77
2023/03/11 01:34:01;;;;;;;;;;;;;;;-1.04;100.00;100753.13;5054289;28;19924;-76
2023/03/11 01:36:27;;;;;;;;;;;;;;;-1.06;100.00;100745.25;5041361;28;19920;-77
2023/03/11 01:38:52;;;;;;;;;;;;;;;-1.03;100.00;100746.06;5059277;28;20021;-77
2023/03/11 01:41:17;;;;;;;;;;;;;;;-0.95;100.00;100749.34;5053245;28;20011;-76
2023/03/11 01:43:42;;;;;;;;;;;;;;;-0.91;100.00;100751.81;5039840;28;19920;-77
2023/03/11 01:46:20;;;;;;;;;;;;;;;-0.86;100.00;100751.69;5053771;28;19926;-77
2023/03/11 01:48:52;;;;;;;;;;;;;;;-0.84;100.00;100762.19;5051614;28;20331;-77
2023/03/11 01:51:19;;;;;;;;;;;;;;;-0.81;100.00;100747.16;5055939;28;20421;-77
2023/03/11 01:53:45;;;;;;;;;;;;;;;-0.74;100.00;100752.19;5053368;28;19921;-76
2023/03/11 01:56:10;;;;;;;;;;;;;;;-0.70;100.00;100751.19;5034595;28;19925;-76
2023/03/11 01:58:36;;;;;;;;;;;;;;;-0.66;100.00;100755.47;5055298;28;19916;-76
2023/03/11 02:01:02;;;;;;;;;;;;;;;-0.67;100.00;100754.63;5051237;28;19921;-77
2023/03/11 02:03:29;;;;;;;;;;;;;;;-0.70;100.00;100756.47;5052728;28;19921;-78
2023/03/11 02:05:54;;;;;;;;;;;;;;;-0.69;100.00;100760.84;5051823;28;20349;-77
2023/03/11 02:08:20;;;;;;;;;;;;;;;-0.70;100.00;100754.72;5054968;28;19932;-77
2023/03/11 02:10:45;;;;;;;;;;;;;;;-0.74;100.00;100757.47;5046438;28;19963;-77
2023/03/11 02:13:10;;;;;;;;;;;;;;;-0.73;100.00;100757.44;5050902;28;20339;-77
2023/03/11 02:15:35;;;;;;;;;;;;;;;-0.71;100.00;100753.00;5031232;28;20429;-77
2023/03/11 02:18:02;;;;;;;;;;;;;;;-0.68;100.00;100758.16;5036624;28;20033;-76
2023/03/11 02:20:33;;;;;;;;;;;;;;;-0.71;100.00;100760.91;5052541;28;19921;-77
2023/03/11 02:22:59;;;;;;;;;;;;;;;-0.79;100.00;100755.00;5050737;28;20416;-76
2023/03/11 02:25:35;;;;;;;;;;;;;;;-0.76;100.00;100765.44;5049410;28;19998;-77
2023/03/11 02:28:00;;;;;;;;;;;;;;;-0.78;100.00;100765.47;5051051;28;20298;-77
2023/03/11 02:30:26;;;;;;;;;;;;;;;-0.77;100.00;100766.34;5051697;28;19921;-77
2023/03/11 02:32:51;;;;;;;;;;;;;;;-0.75;100.00;100772.44;5054673;28;20347;-76
2023/03/11 02:35:16;;;;;;;;;;;;;;;-0.76;100.00;100771.56;5055276;28;19924;-77
2023/03/11 02:37:49;;;;;;;;;;;;;;;-0.75;100.00;100769.81;5053568;28;19923;-77
2023/03/11 02:40:20;;;;;;;;;;;;;;;-0.73;100.00;100775.91;5053099;28;19966;-77
2023/03/11 02:42:46;;;;;;;;;;;;;;;-0.72;100.00;100779.38;5052671;28;19927;-77
2023/03/11 02:45:11;;;;;;;;;;;;;;;-0.67;100.00;100780.09;5040217;28;19921;-77
2023/03/11 02:47:37;;;;;;;;;;;;;;;-0.69;100.00;100782.81;5050094;28;19948;-77
2023/03/11 02:50:02;;;;;;;;;;;;;;;-0.71;100.00;100773.19;5039211;28;20334;-77
2023/03/11 02:52:27;;;;;;;;;;;;;;;-0.70;100.00;100775.81;5048884;28;20427;-77
2023/03/11 02:54:52;;;;;;;;;;;;;;;-0.71;100.00;100773.19;5050148;28;20356;-77
2023/03/11 02:57:18;;;;;;;;;;;;;;;-0.70;100.00;100769.66;5054011;28;19955;-77
2023/03/11 02:59:43;;;;;;;;;;;;;;;-0.65;100.00;100771.22;5040426;28;19921;-77
2023/03/11 03:02:08;;;;;;;;;;;;;;;-0.70;100.00;100767.03;5043421;28;19966;-77
2023/03/11 03:04:33;;;;;;;;;;;;;;;-0.71;100.00;100760.91;5055209;28;19956;-77
2023/03/11 03:06:58;;;;;;;;;;;;;;;-0.65;100.00;100765.94;5055030;28;20039;-77
2023/03/11 03:09:24;;;;;;;;;;;;;;;-0.67;100.00;100762.53;5061118;28;20235;-77
2023/03/11 03:11:49;;;;;;;;;;;;;;;-0.66;100.00;100764.22;5041949;28;19928;-77
2023/03/11 03:14:14;;;;;;;;;;;;;;;-0.66;100.00;100764.22;5058255;28;19927;-77
2023/03/11 03:16:39;;;;;;;;;;;;;;;-0.63;100.00;100773.81;5040901;28;20177;-76
2023/03/11 03:19:05;;;;;;;;;;;;;;;-0.66;100.00;100774.78;5040223;28;19925;-76
2023/03/11 03:21:30;;;;;;;;;;;;;;;-0.62;100.00;100773.75;5042991;28;19928;-77
2023/03/11 03:23:55;;;;;;;;;;;;;;;-0.65;100.00;100779.13;5056915;28;19921;-77
2023/03/11 03:26:20;;;;;;;;;;;;;;;-0.67;100.00;100793.28;5039452;28;20520;-77
2023/03/11 03:28:46;;;;;;;;;;;;;;;-0.74;100.00;100782.09;5056923;28;20420;-77
2023/03/11 03:31:11;;;;;;;;;;;;;;;-0.64;100.00;100801.09;5059234;28;20442;-77
2023/03/11 03:33:36;;;;;;;;;;;;;;;-0.64;100.00;100807.22;5057490;28;19917;-77
2023/03/11 03:36:04;;;;;;;;;;;;;;;-0.66;100.00;100816.97;5051813;28;19963;-77
2023/03/11 03:38:30;;;;;;;;;;;;;;;-0.68;100.00;100818.81;5050832;28;20375;-77
2023/03/11 03:40:55;;;;;;;;;;;;;;;-0.69;100.00;100829.41;5031686;28;19959;-77
2023/03/11 03:43:20;;;;;;;;;;;;;;;-0.86;100.00;100803.53;5051908;28;19951;-77
2023/03/11 03:45:53;;;;;;;;;;;;;;;-0.71;100.00;100821.53;5053782;28;19999;-76
2023/03/11 03:48:18;;;;;;;;;;;;;;;-0.68;100.00;100834.63;5052392;28;20303;-77
2023/03/11 03:50:43;;;;;;;;;;;;;;;-0.78;100.00;100834.03;5054239;28;20429;-78
2023/03/11 03:53:09;;;;;;;;;;;;;;;-0.82;100.00;100829.78;5044571;28;19925;-77
2023/03/11 03:55:34;;;;;;;;;;;;;;;-0.80;100.00;100835.88;5054376;28;19924;-77
2023/03/11 03:57:59;;;;;;;;;;;;;;;-0.74;100.00;100829.53;5054332;28;19932;-77
2023/03/11 04:00:24;;;;;;;;;;;;;;;-0.74;100.00;100841.84;5038479;28;19939;-77
2023/03/11 04:02:50;;;;;;;;;;;;;;;-0.73;100.00;100840.94;5059829;28;20057;-77
2023/03/11 04:05:15;;;;;;;;;;;;;;;-0.79;100.00;100842.84;5061692;28;19916;-77
2023/03/11 04:07:40;;;;;;;;;;;;;;;-0.81;100.00;100839.44;5056943;28;19924;-78
2023/03/11 04:10:06;;;;;;;;;;;;;;;-0.81;100.00;100844.69;5060308;28;19922;-77
2023/03/11 04:12:31;;;;;;;;;;;;;;;-0.83;100.00;100848.28;5058763;28;19929;-76
2023/03/11 04:14:56;;;;;;;;;;;;;;;-0.91;100.00;100849.34;5040003;28;20404;-77
2023/03/11 04:17:21;;;;;;;;;;;;;;;-1.04;100.00;100850.66;5039096;28;20079;-77
2023/03/11 04:19:46;;;;;;;;;;;;;;;-1.13;100.00;100853.53;5054880;28;19924;-77
2023/03/11 04:22:12;;;;;;;;;;;;;;;-1.18;100.00;100855.44;5052201;28;20034;-77
2023/03/11 04:24:37;;;;;;;;;;;;;;;-1.30;100.00;100857.53;5056400;28;20065;-77
2023/03/11 04:27:02;;;;;;;;;;;;;;;-1.33;100.00;100868.16;5054023;28;20576;-77
2023/03/11 04:29:27;;;;;;;;;;;;;;;-1.43;100.00;100869.28;5056240;28;20299;-77
2023/03/11 04:31:52;;;;;;;;;;;;;;;-1.48;100.00;100863.31;5056834;28;20679;-77
2023/03/11 04:34:18;;;;;;;;;;;;;;;-1.54;100.00;100873.09;5051823;28;20447;-77
2023/03/11 04:36:43;;;;;;;;;;;;;;;-1.61;100.00;100857.50;5045747;28;20367;-77
2023/03/11 04:39:08;;;;;;;;;;;;;;;-1.63;100.00;100868.06;5055574;28;20011;-77
2023/03/11 04:41:33;;;;;;;;;;;;;;;-1.67;100.00;100866.41;5059541;28;19925;-77
2023/03/11 04:43:59;;;;;;;;;;;;;;;-1.68;100.00;100864.69;5054142;28;19920;-77
2023/03/11 04:46:24;;;;;;;;;;;;;;;-1.72;100.00;100865.69;5055576;28;19966;-77
2023/03/11 04:48:49;;;;;;;;;;;;;;;-1.78;100.00;100866.69;5037927;28;20321;-77
2023/03/11 04:51:15;;;;;;;;;;;;;;;-1.77;100.00;100872.84;5058288;28;20425;-77
2023/03/11 04:53:40;;;;;;;;;;;;;;;-1.81;100.00;100870.28;5058509;28;20402;-77
2023/03/11 04:56:05;;;;;;;;;;;;;;;-1.81;100.00;100866.78;5050297;28;19928;-77
2023/03/11 04:58:30;;;;;;;;;;;;;;;-1.79;100.00;100874.66;5042621;28;19924;-76
2023/03/11 05:00:56;;;;;;;;;;;;;;;-1.85;100.00;100866.00;5038229;28;19920;-77
2023/03/11 05:03:21;;;;;;;;;;;;;;;-1.85;100.00;100880.91;5038751;28;19929;-76
2023/03/11 05:05:46;;;;;;;;;;;;;;;-1.86;100.00;100879.22;5054116;28;20392;-77
2023/03/11 05:08:11;;;;;;;;;;;;;;;-1.90;100.00;100872.31;5039074;28;20358;-77
2023/03/11 05:10:38;;;;;;;;;;;;;;;-1.92;100.00;100877.59;5050714;28;20386;-77
2023/03/11 05:13:03;;;;;;;;;;;;;;;-1.95;100.00;100875.03;5057009;28;19920;-76
2023/03/11 05:15:30;;;;;;;;;;;;;;;-1.98;100.00;100868.09;5051404;28;20002;-77
2023/03/11 05:17:55;;;;;;;;;;;;;;;-1.97;100.00;100884.72;5056022;28;19920;-76
2023/03/11 05:20:20;;;;;;;;;;;;;;;-2.00;100.00;100885.69;5050753;28;20017;-77
2023/03/11 05:22:46;;;;;;;;;;;;;;;-2.02;100.00;100894.53;5056397;28;19927;-77
2023/03/11 05:25:11;;;;;;;;;;;;;;;-2.07;100.00;100902.50;5036467;28;19935;-77
2023/03/11 05:27:36;;;;;;;;;;;;;;;-2.07;100.00;100901.66;5054500;28;19920;-77
2023/03/11 05:30:01;;;;;;;;;;;;;;;-2.02;100.00;100907.69;5053456;28;20441;-76
2023/03/11 05:32:26;;;;;;;;;;;;;;;-2.01;100.00;100904.16;5053202;28;20349;-77
2023/03/11 05:34:52;;;;;;;;;;;;;;;-2.03;100.00;100905.94;5054723;28;20256;-77
2023/03/11 05:37:17;;;;;;;;;;;;;;;-2.03;100.00;100901.53;5041625;28;20302;-77
2023/03/11 05:39:42;;;;;;;;;;;;;;;-2.04;100.00;100896.31;5054250;28;20405;-77
2023/03/11 05:42:08;;;;;;;;;;;;;;;-2.07;100.00;100899.88;5034599;28;20034;-77
2023/03/11 05:44:33;;;;;;;;;;;;;;;-2.11;100.00;100900.84;5055198;28;20051;-77
2023/03/11 05:46:58;;;;;;;;;;;;;;;-2.14;100.00;100909.69;5045753;28;20293;-77
2023/03/11 05:49:23;;;;;;;;;;;;;;;-2.16;100.00;100908.88;5053489;28;20542;-77
2023/03/11 05:51:49;;;;;;;;;;;;;;;-2.19;100.00;100916.81;5052727;28;19967;-77
2023/03/11 05:54:14;;;;;;;;;;;;;;;-2.22;100.00;100927.41;5052725;28;19927;-77
2023/03/11 05:56:40;;;;;;;;;;;;;;;-2.27;100.00;100930.16;5052600;28;19924;-78
2023/03/11 05:59:06;;;;;;;;;;;;;;;-2.30;100.00;100930.22;5050262;28;20612;-77
2023/03/11 06:01:31;;;;;;;;;;;;;;;-2.33;100.00;100932.94;5042137;28;19925;-77
2023/03/11 06:03:57;;;;;;;;;;;;;;;-2.33;100.00;100932.06;5056571;28;19924;-77
2023/03/11 06:06:22;;;;;;;;;;;;;;;-2.36;100.00;100932.13;5036632;28;19920;-77
2023/03/11 06:08:49;;;;;;;;;;;;;;;-2.38;100.00;100940.03;5053036;28;19924;-77
2023/03/11 06:11:14;;;;;;;;;;;;;;;-2.37;100.00;100941.78;5051691;28;19925;-77
2023/03/11 06:13:39;;;;;;;;;;;;;;;-2.38;100.00;100954.97;5049873;28;19968;-77
2023/03/11 06:16:05;;;;;;;;;;;;;;;-2.40;100.00;100952.41;5051287;28;19927;-77
2023/03/11 06:18:30;;;;;;;;;;;;;;;-2.39;100.00;100961.13;5057970;28;20003;-77
2023/03/11 06:20:58;;;;;;;;;;;;;;;-2.39;100.00;100955.88;5039559;28;19924;-77
2023/03/11 06:23:24;;;;;;;;;;;;;;;-2.38;100.00;100954.97;5052524;28;19920;-77
2023/03/11 06:25:56;;;;;;;;;;;;;;;-2.37;100.00;100952.28;5054123;28;19943;-77
2023/03/11 06:28:21;;;;;;;;;;;;;;;-2.38;100.00;100953.19;5054667;28;20251;-77
2023/03/11 06:30:46;;;;;;;;;;;;;;;-2.32;100.00;100960.09;5049963;28;19978;-77
2023/03/11 06:33:13;;;;;;;;;;;;;;;-2.31;100.00;100967.09;5039504;28;21539;-77
2023/03/11 06:35:39;;;;;;;;;;;;;;;-2.26;100.00;100968.72;5041170;28;19926;-77
2023/03/11 06:38:04;;;;;;;;;;;;;;;-2.17;100.00;100970.28;5059589;28;19924;-77
2023/03/11 06:40:29;;;;;;;;;;;;;;;-2.08;100.00;100974.44;5053794;28;20039;-77
2023/03/11 06:42:55;;;;;;;;;;;;;;;-2.00;100.00;100983.03;5055072;28;19955;-77
2023/03/11 06:45:20;;;;;;;;;;;;;;;-1.95;100.00;100975.03;5057188;28;20044;-76
2023/03/11 06:47:45;;;;;;;;;;;;;;;-1.96;100.00;100976.81;5055500;28;19942;-77
2023/03/11 06:50:10;;;;;;;;;;;;;;;-1.88;100.00;100983.66;5053534;28;19924;-77
2023/03/11 06:52:35;;;;;;;;;;;;;;;-1.85;100.00;100989.72;5053841;28;19929;-77
2023/03/11 06:55:02;;;;;;;;;;;;;;;-1.76;100.00;100995.66;5056333;28;20189;-77
2023/03/11 06:57:28;;;;;;;;;;;;;;;-1.61;100.00;100997.91;5056970;28;19927;-77
2023/03/11 06:59:53;;;;;;;;;;;;;;;-1.58;100.00;101000.47;5052941;28;20366;-77
2023/03/11 07:02:18;;;;;;;;;;;;;;;-1.51;100.00;101007.34;5052926;28;19966;-77
2023/03/11 07:04:43;;;;;;;;;;;;;;;-1.40;100.00;101014.97;5052857;28;20546;-77
2023/03/11 07:07:09;;;;;;;;;;;;;;;-1.30;100.00;101022.63;5049556;28;20282;-77
2023/03/11 07:09:34;;;;;;;;;;;;;;;-1.21;100.00;101027.66;5052315;28;20496;-77
2023/03/11 07:11:59;;;;;;;;;;;;;;;-1.12;100.00;101024.81;5053272;28;20442;-77
2023/03/11 07:14:24;;;;;;;;;;;;;;;-1.06;100.00;101024.59;5057146;28;20366;-76
2023/03/11 07:16:50;;;;;;;;;;;;;;;-0.95;100.00;101020.84;5036322;28;19960;-76
2023/03/11 07:19:15;;;;;;;;;;;;;;;-0.80;100.00;101020.44;5050698;28;19920;-76
2023/03/11 07:21:40;;;;;;;;;;;;;;;-0.67;100.00;101026.25;5053467;28;19924;-77
2023/03/11 07:24:06;;;;;;;;;;;;;;;-0.46;100.00;101023.88;5044244;28;19921;-77
2023/03/11 07:26:32;;;;;;;;;;;;;;;-0.26;100.00;101025.91;5056581;28;19924;-77
2023/03/11 07:28:57;;;;;;;;;;;;;;;-0.08;100.00;101026.31;5059984;28;19931;-77
2023/03/11 07:31:30;;;;;;;;;;;;;;;-0.01;100.00;101033.97;5056832;28;19936;-77
2023/03/11 07:33:59;;;;;;;;;;;;;;;0.16;100.00;101039.66;5043321;28;19920;-77
2023/03/11 07:36:24;;;;;;;;;;;;;;;0.28;100.00;101042.78;5039117;28;20306;-77
2023/03/11 07:38:58;;;;;;;;;;;;;;;0.53;100.00;101047.28;5050621;28;20359;-77
2023/03/11 07:41:23;;;;;;;;;;;;;;;0.66;100.00;101039.81;5047466;28;20038;-77
2023/03/11 07:43:48;;;;;;;;;;;;;;;0.90;100.00;101045.19;5055794;28;20014;-78
2023/03/11 07:46:15;;;;;;;;;;;;;;;1.01;100.00;101045.69;5055684;28;20046;-77
2023/03/11 07:48:41;;;;;;;;;;;;;;;1.11;100.00;101046.22;5059494;28;19984;-77
2023/03/11 07:51:10;;;;;;;;;;;;;;;1.22;100.00;101040.56;5041867;28;20019;-77
2023/03/11 07:53:35;;;;;;;;;;;;;;;1.38;100.00;101040.88;5040198;28;19925;-77
2023/03/11 07:56:03;;;;;;;;;;;;;;;1.39;100.00;101054.94;5057239;28;20152;-77
2023/03/11 07:58:28;;;;;;;;;;;;;;;1.55;100.00;101060.56;5058034;28;19924;-77
2023/03/11 08:00:55;;;;;;;;;;;;;;;1.75;100.00;101058.03;5057522;28;20278;-77
2023/03/11 08:03:21;;;;;;;;;;;;;;;2.17;100.00;101066.19;5056785;28;19928;-78
2023/03/11 08:05:46;;;;;;;;;;;;;;;2.49;100.00;101075.50;5059060;28;19924;-77
2023/03/11 08:08:11;;;;;;;;;;;;;;;2.75;100.00;101078.03;5039378;28;20325;-77
2023/03/11 08:10:37;;;;;;;;;;;;;;;3.01;100.00;101071.63;5056251;28;19972;-77
2023/03/11 08:13:02;;;;;;;;;;;;;;;3.09;99.64;101071.28;5056506;28;19931;-77
2023/03/11 08:15:27;;;;;;;;;;;;;;;3.37;100.00;101072.75;5057719;28;19927;-77
2023/03/11 08:17:53;;;;;;;;;;;;;;;3.73;99.41;101064.06;5060613;28;19920;-77
2023/03/11 08:20:18;;;;;;;;;;;;;;;4.04;93.95;101071.47;5057221;28;19920;-77
2023/03/11 08:22:43;;;;;;;;;;;;;;;4.04;89.46;101070.63;5057040;28;20416;-77
2023/03/11 08:25:08;;;;;;;;;;;;;;;4.17;80.70;101076.25;5053538;28;20354;-76
2023/03/11 08:27:34;;;;;;;;;;;;;;;4.60;82.01;101081.28;5054571;28;20014;-77
2023/03/11 08:29:59;;;;;;;;;;;;;;;5.01;77.40;101080.16;5055440;28;20325;-77
2023/03/11 08:32:24;;;;;;;;;;;;;;;5.17;71.88;101075.78;5062247;28;20445;-77
2023/03/11 08:34:49;;;;;;;;;;;;;;;5.69;68.04;101080.16;5059377;28;19917;-77
2023/03/11 08:37:14;;;;;;;;;;;;;;;5.82;66.33;101072.38;5057248;28;19975;-77
2023/03/11 08:39:40;;;;;;;;;;;;;;;5.97;68.27;101072.47;5056049;28;20511;-77
2023/03/11 08:42:05;;;;;;;;;;;;;;;5.90;64.36;101076.41;5058030;28;20317;-77
2023/03/11 08:44:31;;;;;;;;;;;;;;;5.90;64.19;101076.41;5053410;28;19973;-77
2023/03/11 08:46:56;;;;;;;;;;;;;;;5.93;66.62;101068.25;5053812;28;19920;-77
2023/03/11 08:49:21;;;;;;;;;;;;;;;5.92;64.91;101079.88;5052352;28;20448;-77
2023/03/11 08:51:46;;;;;;;;;;;;;;;6.10;63.41;101078.88;5054619;28;20651;-77
2023/03/11 08:54:11;;;;;;;;;;;;;;;6.50;66.57;101089.13;5057493;28;20366;-77
2023/03/11 08:56:37;;;;;;;;;;;;;;;6.88;65.85;101102.09;5049443;28;20027;-77
2023/03/11 08:59:02;;;;;;;;;;;;;;;7.10;60.79;101102.66;5055321;28;19947;-77
2023/03/11 09:01:28;;;;;;;;;;;;;;;6.65;60.75;101089.22;5056468;28;19932;-77
2023/03/11 09:03:54;;;;;;;;;;;;;;;6.66;60.28;101105.13;5056867;28;19927;-77
2023/03/11 09:06:19;;;;;;;;;;;;;;;6.97;57.86;101108.69;5045316;28;19921;-77
2023/03/11 09:08:45;;;;;;;;;;;;;;;6.67;57.89;101108.66;5049207;28;19924;-77
2023/03/11 09:11:12;;;;;;;;;;;;;;;7.13;61.32;101110.47;5050690;28;19928;-77
2023/03/11 09:13:39;;;;;;;;;;;;;;;7.06;59.04;101112.63;5055396;28;19925;-77
2023/03/11 09:16:05;;;;;;;;;;;;;;;6.94;58.28;101116.03;5053419;28;20406;-77
2023/03/11 09:18:30;;;;;;;;;;;;;;;7.04;56.11;101114.53;5056195;28;19927;-77
2023/03/11 09:20:57;;;;;;;;;;;;;;;7.22;55.77;101109.91;5051906;28;19968;-77
2023/03/11 09:23:22;;;;;;;;;;;;;;;7.34;54.65;101113.66;5056576;28;19928;-77
2023/03/11 09:25:47;;;;;;;;;;;;;;;7.04;55.57;101120.75;5048785;28;20106;-77
2023/03/11 09:28:13;;;;;;;;;;;;;;;7.12;54.93;101122.09;5054997;28;19928;-77
2023/03/11 09:30:38;;;;;;;;;;;;;;;7.25;54.65;101124.91;5049218;28;20320;-77
2023/03/11 09:33:03;;;;;;;;;;;;;;;7.29;54.70;101126.44;5052650;28;19921;-77
2023/03/11 09:35:28;;;;;;;;;;;;;;;7.41;55.32;101119.53;5048829;28;20039;-76
2023/03/11 09:37:54;;;;;;;;;;;;;;;7.40;52.12;101117.81;5050568;28;19921;-76
2023/03/11 09:40:20;;;;;;;;;;;;;;;7.39;50.78;101116.91;5051194;28;19921;-77
2023/03/11 09:42:57;;;;;;;;;;;;;;;7.63;53.69;101106.56;5057140;28;19931;-77
2023/03/11 09:45:29;;;;;;;;;;;;;;;7.96;50.61;101124.13;5053405;28;19921;-77
2023/03/11 09:48:15;;;;;;;;;;;;;;;7.91;54.22;101126.25;5029573;28;20282;-77
2023/03/11 09:50:59;;;;;;;;;;;;;;;8.17;55.49;101126.44;5053636;28;19924;-77
2023/03/11 09:53:33;;;;;;;;;;;;;;;8.44;51.00;101127.44;5055616;28;19970;-77
2023/03/11 09:55:59;;;;;;;;;;;;;;;8.96;53.86;101126.72;5050610;28;20259;-76
2023/03/11 09:58:24;;;;;;;;;;;;;;;8.82;52.02;101124.13;5060271;28;20019;-77
2023/03/11 10:00:51;;;;;;;;;;;;;;;8.57;51.29;101120.38;5055325;28;20325;-77
2023/03/11 10:03:20;;;;;;;;;;;;;;;8.50;49.31;101129.75;5055065;28;20431;-77
2023/03/11 10:05:45;;;;;;;;;;;;;;;8.52;51.69;101127.84;5055599;28;19925;-77
2023/03/11 10:08:33;;;;;;;;;;;;;;;8.70;49.03;101128.47;5048073;28;19927;-76
2023/03/11 10:11:03;;;;;;;;;;;;;;;8.81;48.15;101125.94;5040344;28;19924;-76
2023/03/11 10:13:37;;;;;;;;;;;;;;;9.10;47.35;101128.50;5048143;28;19943;-76
2023/03/11 10:16:06;;;;;;;;;;;;;;;9.18;48.95;101119.94;5043754;28;19965;-76
2023/03/11 10:18:31;;;;;;;;;;;;;;;8.70;46.61;101132.00;5052902;28;19994;-77
2023/03/11 10:20:57;;;;;;;;;;;;;;;8.37;48.77;101132.31;5045901;28;19920;-77
2023/03/11 10:23:41;;;;;;;;;;;;;;;8.53;48.42;101127.72;5053016;28;20026;-76
2023/03/11 10:26:11;;;;;;;;;;;;;;;9.21;50.22;101132.28;5045858;28;20457;-76
2023/03/11 10:28:44;;;;;;;;;;;;;;;9.54;49.58;101138.97;5038144;28;19928;-77
2023/03/11 10:31:17;;;;;;;;;;;;;;;10.02;50.71;101130.28;5056654;28;19928;-76
2023/03/11 10:33:46;;;;;;;;;;;;;;;10.53;46.80;101133.88;5036522;28;20011;-76
2023/03/11 10:36:13;;;;;;;;;;;;;;;10.67;48.78;101143.59;5053008;28;20015;-76
2023/03/11 10:38:47;;;;;;;;;;;;;;;10.45;44.08;101138.00;5038746;28;19934;-76
2023/03/11 10:41:15;;;;;;;;;;;;;;;9.63;44.59;101145.53;5050416;28;19924;-77
2023/03/11 10:43:42;;;;;;;;;;;;;;;9.13;47.42;101146.19;5048286;28;20378;-76
2023/03/11 10:46:22;;;;;;;;;;;;;;;8.85;46.47;101122.09;5047553;28;19966;-76
2023/03/11 10:48:47;;;;;;;;;;;;;;;9.38;45.44;101150.75;5049399;28;20361;-76
2023/03/11 10:51:13;;;;;;;;;;;;;;;8.73;47.81;101133.63;5049829;28;19940;-76
2023/03/11 10:53:49;;;;;;;;;;;;;;;8.62;46.88;101145.00;5056471;28;19920;-76
2023/03/11 10:56:35;;;;;;;;;;;;;;;8.79;49.09;101143.06;5034052;28;19920;-76
2023/03/11 10:59:00;;;;;;;;;;;;;;;8.26;48.03;101141.88;5053876;28;20418;-76
2023/03/11 11:01:27;;;;;;;;;;;;;;;7.89;48.84;101148.69;5044402;28;19917;-76
2023/03/11 11:03:54;;;;;;;;;;;;;;;7.85;48.45;101145.34;5053557;28;19924;-76
2023/03/11 11:06:30;;;;;;;;;;;;;;;8.81;49.76;101133.13;5057687;28;19920;-76
2023/03/11 11:09:15;;;;;;;;;;;;;;;9.69;46.21;101135.25;5057795;28;19943;-77
2023/03/11 11:11:40;;;;;;;;;;;;;;;9.35;47.30;101136.72;5055478;28;19967;-76
2023/03/11 11:14:06;;;;;;;;;;;;;;;9.15;47.51;101139.75;5059676;28;19924;-76
2023/03/11 11:16:32;;;;;;;;;;;;;;;9.24;47.74;101140.13;5057959;28;20546;-76
2023/03/11 11:19:00;;;;;;;;;;;;;;;8.91;46.67;101138.72;5056084;28;20305;-76
2023/03/11 11:21:38;;;;;;;;;;;;;;;8.88;44.44;101141.59;5053246;28;19925;-76
2023/03/11 11:24:10;;;;;;;;;;;;;;;8.58;46.49;101139.97;5059917;28;19920;-76
2023/03/11 11:26:35;;;;;;;;;;;;;;;7.88;47.66;101141.59;5049986;28;19921;-76
2023/03/11 11:29:03;;;;;;;;;;;;;;;8.11;50.24;101149.06;5037640;28;20762;-76
2023/03/11 11:31:29;;;;;;;;;;;;;;;7.68;48.24;101151.72;5053614;28;19941;-76
2023/03/11 11:33:54;;;;;;;;;;;;;;;7.08;50.78;101149.94;5054633;28;19920;-76
2023/03/11 11:36:20;;;;;;;;;;;;;;;6.95;47.80;101155.13;5037424;28;19972;-76
2023/03/11 11:38:45;;;;;;;;;;;;;;;7.33;48.59;101157.34;5053035;28;19924;-76
2023/03/11 11:41:12;;;;;;;;;;;;;;;7.99;47.41;101147.16;5055270;28;19920;-75
2023/03/11 11:43:43;;;;;;;;;;;;;;;8.45;45.38;101140.72;5055346;28;19917;-75
2023/03/11 11:46:10;;;;;;;;;;;;;;;9.47;44.41;101149.25;5053891;28;19927;-76
2023/03/11 11:48:55;;;;;;;;;;;;;;;9.65;42.58;101141.78;5050747;28;19970;-75
2023/03/11 11:51:40;;;;;;;;;;;;;;;10.58;39.15;101140.63;5051519;28;20035;-76
2023/03/11 11:54:24;;;;;;;;;;;;;;;12.08;40.70;101141.88;5058944;28;20405;-76
2023/03/11 11:56:49;;;;;;;;;;;;;;;12.84;38.83;101141.19;5062702;28;19920;-76
2023/03/11 11:59:16;;;;;;;;;;;;;;;13.39;37.49;101142.88;5049497;28;19927;-76
2023/03/11 12:01:42;;;;;;;;;;;;;;;14.02;37.96;101139.34;5061393;28;20053;-76
2023/03/11 12:04:25;;;;;;;;;;;;;;;14.53;35.21;101145.66;5062517;28;20007;-76
2023/03/11 12:06:51;;;;;;;;;;;;;;;15.42;33.74;101143.88;5065590;28;20030;-76
2023/03/11 12:09:16;;;;;;;;;;;;;;;16.03;30.56;101146.34;5054561;28;19917;-76
2023/03/11 12:11:50;;;;;;;;;;;;;;;16.98;31.23;101140.72;5061763;28;19939;-77
2023/03/11 12:14:33;;;;;;;;;;;;;;;17.43;29.96;101147.06;5047928;28;19930;-77
2023/03/11 12:17:00;;;;;;;;;;;;;;;14.27;34.20;101118.25;5062282;28;20321;-77
2023/03/11 12:19:34;;;;;;;;;;;;;;;13.40;33.61;101127.59;5053059;28;19967;-77
2023/03/11 12:22:15;;;;;;;;;;;;;;;14.02;34.22;101133.94;5059791;28;19920;-77
2023/03/11 12:24:40;;;;;;;;;;;;;;;13.44;33.46;101140.69;5057344;28;20332;-77
2023/03/11 12:27:09;;;;;;;;;;;;;;;14.47;32.33;101145.31;5059336;28;20528;-77
2023/03/11 12:29:35;;;;;;;;;;;;;;;14.72;31.58;101140.44;5055741;28;19920;-76
2023/03/11 12:32:00;;;;;;;;;;;;;;;15.17;33.00;101131.81;5052764;28;19928;-76